Grider Field
KPBF : now visible

Aeroporto :











RITROVATECI SU...

 
LOGIN :

Iscrizione | Disclaimer

   EN    FR    IT 

 









Sommario :    VFR   VFR Marginale   IFR   IFR Intensivo   IFR Molto Intensivo
Visibilità : 
Base nubi : 
>= 8 km
>= 3000ft
5 / 8 km
1000 / 3000 ft
1500m / 5 km
500 / 1000 ft
800 / 1500m
200 / 500 ft
< 800m
< 200 ft
Simboli :   Temporali  Nebbia  Neve Forte  Precipitazioni Forti  Vento > 20 kt







- Altitudine del aeroporto : 206 ft


KPBF - Grider Field

ULTIMO METAR :
  • 241053Z AUTO 00000KT 10SM CLR 23/22 A3000 RMK AO2 SLP155 T02330217

METARs OBSOLETI :
  • 240953Z AUTO 00000KT 10SM FEW030 SCT037 23/22 A2999 RMK AO2 SLP153 T02330222
  • 240853Z AUTO 18003KT 10SM CLR 23/22 A3000 RMK AO2 SLP155 T02330217 53004
  • 240753Z AUTO 11003KT 10SM CLR 24/22 A2999 RMK AO2 SLP151 T02390222

TAF KPBF
Valido dal 24 a 10 ore il 25 a 06 ore UTC


241023Z 2410/2506 08003KT P6SM VCSH SCT025 OVC045
TEMPO 2410/2413 5SM -SHRA BR BKN025
FM241300 07006KT P6SM VCTS SCT025 OVC050CB
TEMPO 2416/2420 5SM -TSRA BR BKN025CB
FM250000 05005KT P6SM OVC100
Nessun NOTAM noto per questo aeroporto.



MetMap, La meteo Aeronautica in un colpo d'occhio ! - Copyright ORBIFLY Dicembre 2007 - Disclaimer

ORBIFLY MET'MAP TEAM :

Programmazione e sviluppo : Alexandra Zaïnal
Concezione e sviluppo : Baudouin d'Aumeries
Co-Programmazione e sviluppo : Marc-Olivier Méhu
Supporto tecnico e logistico : Manuel Goepfert
Aiuto per la traduzione : Arnaldo La Scala

Contatto : metmap@orbifly.com




FONTI E CREDITI :

   NOAA       Earth
Advisory